createdAt,value
2023-03-28T00:01:40.630Z,17.80
2023-03-28T00:04:11.588Z,17.90
2023-03-28T00:06:39.767Z,17.90
2023-03-28T00:09:07.558Z,17.90
2023-03-28T00:11:35.577Z,17.90
2023-03-28T00:14:03.896Z,17.90
2023-03-28T00:16:33.010Z,17.80
2023-03-28T00:19:01.366Z,17.80
2023-03-28T00:21:29.577Z,17.80
2023-03-28T00:23:57.357Z,17.80
2023-03-28T00:26:26.690Z,17.80
2023-03-28T00:28:54.744Z,17.80
2023-03-28T00:31:22.585Z,17.80
2023-03-28T00:33:50.484Z,17.80
2023-03-28T00:36:22.930Z,17.70
2023-03-28T00:38:52.412Z,17.70
2023-03-28T00:41:22.180Z,17.70
2023-03-28T00:43:50.064Z,17.80
2023-03-28T00:46:18.049Z,17.70
2023-03-28T00:48:45.865Z,17.70
2023-03-28T00:51:14.865Z,17.70
2023-03-28T00:53:42.885Z,17.70
2023-03-28T00:56:11.621Z,17.70
2023-03-28T00:58:39.699Z,17.80
2023-03-28T01:01:08.529Z,17.80
2023-03-28T01:03:37.851Z,17.80
2023-03-28T01:06:06.291Z,17.80
2023-03-28T01:08:34.281Z,17.80
2023-03-28T01:11:02.027Z,17.80
2023-03-28T01:13:29.767Z,17.70
2023-03-28T01:15:59.319Z,17.70
2023-03-28T01:18:27.420Z,17.70
2023-03-28T01:20:55.593Z,17.70
2023-03-28T01:23:23.411Z,17.70
2023-03-28T01:25:51.288Z,17.70
2023-03-28T01:28:19.855Z,17.70
2023-03-28T01:30:47.666Z,17.70
2023-03-28T01:33:15.591Z,17.70
2023-03-28T01:35:43.540Z,17.70
2023-03-28T01:38:12.239Z,17.70
2023-03-28T01:40:40.028Z,17.70
2023-03-28T01:43:08.003Z,17.70
2023-03-28T01:45:36.023Z,17.70
2023-03-28T01:48:03.956Z,17.70
2023-03-28T01:50:31.954Z,17.70
2023-03-28T01:52:59.921Z,17.70
2023-03-28T01:55:30.282Z,17.70
2023-03-28T01:57:58.153Z,17.70
2023-03-28T02:00:25.984Z,17.60
2023-03-28T02:02:53.933Z,17.70
2023-03-28T02:05:21.730Z,17.70
2023-03-28T02:07:49.662Z,17.70
2023-03-28T02:10:17.486Z,17.70
2023-03-28T02:12:45.492Z,17.70
2023-03-28T02:15:13.898Z,17.70
2023-03-28T02:17:41.800Z,17.60
2023-03-28T02:20:11.678Z,17.70
2023-03-28T02:22:39.666Z,17.60
2023-03-28T02:25:07.461Z,17.60
2023-03-28T02:27:36.954Z,17.60
2023-03-28T02:30:04.794Z,17.60
2023-03-28T02:32:34.270Z,17.60
2023-03-28T02:35:02.117Z,17.60
2023-03-28T02:37:30.134Z,17.60
2023-03-28T02:39:57.960Z,17.60
2023-03-28T02:42:26.035Z,17.60
2023-03-28T02:44:53.856Z,17.70
2023-03-28T02:47:21.687Z,17.70
2023-03-28T02:49:50.708Z,17.70
2023-03-28T02:52:20.454Z,17.70
2023-03-28T02:54:48.516Z,17.70
2023-03-28T02:57:16.750Z,17.60
2023-03-28T02:59:44.748Z,17.60
2023-03-28T03:02:13.436Z,17.60
2023-03-28T03:04:41.244Z,17.60
2023-03-28T03:07:09.708Z,17.60
2023-03-28T03:09:37.595Z,17.60
2023-03-28T03:12:05.394Z,17.60
2023-03-28T03:14:34.721Z,17.60
2023-03-28T03:17:02.518Z,17.60
2023-03-28T03:19:30.716Z,17.60
2023-03-28T03:21:58.482Z,17.60
2023-03-28T03:24:26.279Z,17.60
2023-03-28T03:26:54.261Z,17.50
2023-03-28T03:29:22.130Z,17.50
2023-03-28T03:31:49.950Z,17.50
2023-03-28T03:34:17.868Z,17.50
2023-03-28T03:36:46.041Z,17.50
2023-03-28T03:39:13.818Z,17.50
2023-03-28T03:41:41.767Z,17.50
2023-03-28T03:44:09.603Z,17.50
2023-03-28T03:46:37.541Z,17.50
2023-03-28T03:49:05.352Z,17.50
2023-03-28T03:51:34.234Z,17.50
2023-03-28T03:54:02.085Z,17.50
2023-03-28T03:56:30.090Z,17.50
2023-03-28T03:58:57.924Z,17.50
2023-03-28T04:01:30.297Z,17.50
2023-03-28T04:03:58.405Z,17.40
2023-03-28T04:06:26.270Z,17.40
2023-03-28T04:08:54.085Z,17.50
2023-03-28T04:11:21.882Z,17.40
2023-03-28T04:13:49.711Z,17.40
2023-03-28T04:16:17.534Z,17.40
2023-03-28T04:18:50.835Z,17.40
2023-03-28T04:21:18.865Z,17.40
2023-03-28T04:23:48.475Z,17.40
2023-03-28T04:26:20.735Z,17.40
2023-03-28T04:28:49.009Z,17.40
2023-03-28T04:31:16.838Z,17.40
2023-03-28T04:33:45.435Z,17.40
2023-03-28T04:36:16.932Z,17.40
2023-03-28T04:38:45.948Z,17.40
2023-03-28T04:41:13.771Z,17.40
2023-03-28T04:43:41.638Z,17.30
2023-03-28T04:46:09.644Z,17.30
2023-03-28T04:48:37.521Z,17.30
2023-03-28T04:51:05.294Z,17.30
2023-03-28T04:53:33.076Z,17.40
2023-03-28T04:56:01.255Z,17.30
2023-03-28T04:58:29.275Z,17.30
2023-03-28T05:00:57.128Z,17.40
2023-03-28T05:03:25.273Z,17.30
2023-03-28T05:05:54.351Z,17.30
2023-03-28T05:08:22.586Z,17.30
2023-03-28T05:10:50.594Z,17.30
2023-03-28T05:13:18.386Z,17.30
2023-03-28T05:15:46.165Z,17.30
2023-03-28T05:18:13.968Z,17.30
2023-03-28T05:20:42.121Z,17.30
2023-03-28T05:23:09.949Z,17.30
2023-03-28T05:25:37.929Z,17.20
2023-03-28T05:28:06.117Z,17.30
2023-03-28T05:30:34.023Z,17.30
2023-03-28T05:33:02.080Z,17.30
2023-03-28T05:35:29.890Z,17.20
2023-03-28T05:37:57.691Z,17.20
2023-03-28T05:40:25.824Z,17.30
2023-03-28T05:42:53.677Z,17.20
2023-03-28T05:45:21.434Z,17.20
2023-03-28T05:47:49.431Z,17.20
2023-03-28T05:50:17.322Z,17.20
2023-03-28T05:52:45.181Z,17.20
2023-03-28T05:55:13.088Z,17.20
2023-03-28T05:57:40.898Z,17.20
2023-03-28T06:00:14.667Z,17.20
2023-03-28T06:02:44.723Z,17.30
2023-03-28T06:05:12.554Z,17.30
2023-03-28T06:07:42.881Z,17.20
2023-03-28T06:10:11.160Z,17.20
2023-03-28T06:12:39.024Z,17.20
2023-03-28T06:15:07.001Z,17.30
2023-03-28T06:17:34.916Z,17.20
2023-03-28T06:20:04.181Z,17.30
2023-03-28T06:22:32.124Z,17.30
2023-03-28T06:24:59.925Z,17.30
2023-03-28T06:27:27.732Z,17.30
2023-03-28T06:29:55.581Z,17.40
2023-03-28T06:32:23.382Z,17.30
2023-03-28T06:34:51.174Z,17.30
2023-03-28T06:37:19.192Z,17.30
2023-03-28T06:39:47.024Z,17.30
2023-03-28T06:42:15.195Z,17.30
2023-03-28T06:44:42.969Z,17.40
2023-03-28T06:47:10.826Z,17.40
2023-03-28T06:49:38.661Z,17.40
2023-03-28T06:52:06.426Z,17.40
2023-03-28T06:54:34.335Z,17.40
2023-03-28T06:57:02.264Z,17.40
2023-03-28T06:59:30.582Z,17.50
2023-03-28T07:01:58.483Z,17.50
2023-03-28T07:04:26.332Z,17.50
2023-03-28T07:06:54.139Z,17.50
2023-03-28T07:09:21.992Z,17.50
2023-03-28T07:11:49.870Z,17.50
2023-03-28T07:14:17.672Z,17.50
2023-03-28T07:16:45.542Z,17.50
2023-03-28T07:19:13.342Z,17.50
2023-03-28T07:21:41.382Z,17.50
2023-03-28T07:24:09.176Z,17.50
2023-03-28T07:26:37.047Z,17.50
2023-03-28T07:29:04.915Z,17.50
2023-03-28T07:31:32.755Z,17.50
2023-03-28T07:34:00.722Z,17.50
2023-03-28T07:36:28.598Z,17.50
2023-03-28T07:38:56.683Z,17.50
2023-03-28T07:41:24.598Z,17.50
2023-03-28T07:43:52.527Z,17.50
2023-03-28T07:46:21.092Z,17.60
2023-03-28T07:48:49.081Z,17.50
2023-03-28T07:51:16.906Z,17.60
2023-03-28T07:53:45.220Z,17.60
2023-03-28T07:56:13.296Z,17.50
2023-03-28T07:58:41.204Z,17.60
2023-03-28T08:01:09.171Z,17.50
2023-03-28T08:03:37.413Z,17.50
2023-03-28T08:06:11.335Z,17.60
2023-03-28T08:08:45.447Z,17.60
2023-03-28T08:11:13.314Z,17.60
2023-03-28T08:13:41.423Z,17.60
2023-03-28T08:16:09.270Z,17.60
2023-03-28T08:18:37.232Z,17.60
2023-03-28T08:21:05.034Z,17.60
2023-03-28T08:23:32.962Z,17.60
2023-03-28T08:26:03.004Z,17.60
2023-03-28T08:28:30.843Z,17.60
2023-03-28T08:30:58.912Z,17.60
2023-03-28T08:33:26.894Z,17.60
2023-03-28T08:35:55.006Z,17.60
2023-03-28T08:38:23.691Z,17.60
2023-03-28T08:40:51.742Z,17.60
2023-03-28T08:43:19.574Z,17.60
2023-03-28T08:45:47.425Z,17.60
2023-03-28T08:48:15.708Z,17.60
2023-03-28T08:50:43.838Z,17.60
2023-03-28T08:53:11.689Z,17.60
2023-03-28T08:55:39.540Z,17.70
2023-03-28T08:58:09.789Z,17.70
2023-03-28T09:00:37.954Z,17.70
2023-03-28T09:03:05.915Z,17.70
2023-03-28T09:05:33.803Z,17.70
2023-03-28T09:08:01.673Z,17.70
2023-03-28T09:10:29.536Z,17.70
2023-03-28T09:12:57.401Z,17.70
2023-03-28T09:15:25.225Z,17.70
2023-03-28T09:17:53.193Z,17.70
2023-03-28T09:20:21.401Z,17.70
2023-03-28T09:22:49.266Z,17.70
2023-03-28T09:25:17.079Z,17.70
2023-03-28T09:27:44.899Z,17.70
2023-03-28T09:30:12.880Z,17.70
2023-03-28T09:32:41.124Z,17.70
2023-03-28T09:35:09.096Z,17.80
2023-03-28T09:37:36.988Z,17.80
2023-03-28T09:40:08.186Z,17.80
2023-03-28T09:42:36.290Z,17.90
2023-03-28T09:45:04.799Z,17.90
2023-03-28T09:47:32.728Z,17.90
2023-03-28T09:50:11.882Z,17.80
2023-03-28T09:52:40.524Z,17.90
2023-03-28T09:55:08.390Z,17.90
2023-03-28T09:57:36.208Z,17.90
2023-03-28T10:00:05.458Z,17.80
2023-03-28T10:02:33.486Z,17.90
2023-03-28T10:05:02.865Z,17.90
2023-03-28T10:07:32.794Z,17.90
2023-03-28T10:10:02.406Z,17.90
2023-03-28T10:12:30.234Z,17.90
2023-03-28T10:14:58.044Z,17.90
2023-03-28T10:17:25.871Z,17.90
2023-03-28T10:19:54.093Z,17.90
2023-03-28T10:22:22.016Z,17.90
2023-03-28T10:24:49.848Z,17.90
2023-03-28T10:27:18.101Z,17.90
2023-03-28T10:29:46.033Z,17.90
2023-03-28T10:32:13.972Z,17.90
2023-03-28T10:34:41.787Z,18.00
2023-03-28T10:37:09.617Z,18.00
2023-03-28T10:39:37.538Z,18.00
2023-03-28T10:42:05.408Z,18.00
2023-03-28T10:44:33.171Z,18.00
2023-03-28T10:47:00.984Z,17.90
2023-03-28T10:49:28.822Z,17.90
2023-03-28T10:51:56.684Z,18.00
2023-03-28T10:54:24.524Z,17.90
2023-03-28T10:56:53.679Z,17.90
2023-03-28T10:59:21.885Z,18.00
2023-03-28T11:01:49.675Z,18.00
2023-03-28T11:04:18.613Z,18.00
2023-03-28T11:06:46.533Z,18.00
2023-03-28T11:09:14.341Z,18.00
2023-03-28T11:11:42.265Z,18.10
2023-03-28T11:14:10.137Z,18.10
2023-03-28T11:16:38.058Z,18.10
2023-03-28T11:19:06.118Z,18.10
2023-03-28T11:21:33.893Z,18.20
2023-03-28T11:24:01.629Z,18.20
2023-03-28T11:26:29.396Z,18.20
2023-03-28T11:28:58.865Z,18.20
2023-03-28T11:31:26.734Z,18.20
2023-03-28T11:33:54.637Z,18.30
2023-03-28T11:36:22.410Z,18.30
2023-03-28T11:38:50.267Z,18.40
2023-03-28T11:41:18.086Z,18.30
2023-03-28T11:43:46.029Z,18.30
2023-03-28T11:46:13.956Z,18.30
2023-03-28T11:48:41.790Z,18.30
2023-03-28T11:51:09.632Z,18.30
2023-03-28T11:53:37.557Z,18.30
2023-03-28T11:56:06.801Z,18.30
2023-03-28T11:58:34.655Z,18.30
2023-03-28T12:01:02.990Z,18.30
2023-03-28T12:03:31.198Z,18.40
2023-03-28T12:06:04.510Z,18.40
2023-03-28T12:08:33.356Z,18.40
2023-03-28T12:11:01.558Z,18.40
2023-03-28T12:13:30.491Z,18.40
2023-03-28T12:15:58.376Z,18.50
2023-03-28T12:18:26.268Z,18.50
2023-03-28T12:20:56.079Z,18.50
2023-03-28T12:23:23.933Z,18.50
2023-03-28T12:25:51.756Z,18.50
2023-03-28T12:28:19.783Z,18.50
2023-03-28T12:30:48.932Z,18.50
2023-03-28T12:33:16.882Z,18.50
2023-03-28T12:35:44.867Z,18.50
2023-03-28T12:38:14.333Z,18.50
2023-03-28T12:40:42.197Z,18.50
2023-03-28T12:43:10.066Z,18.40
2023-03-28T12:45:38.027Z,18.40
2023-03-28T12:48:06.533Z,18.40
2023-03-28T12:50:34.469Z,18.40
2023-03-28T12:53:02.284Z,18.40
2023-03-28T12:55:31.533Z,18.40
2023-03-28T12:57:59.462Z,18.40
2023-03-28T13:00:27.511Z,18.40
2023-03-28T13:02:55.556Z,18.40
2023-03-28T13:05:23.339Z,18.30
2023-03-28T13:07:54.102Z,18.30
2023-03-28T13:10:22.171Z,18.30
2023-03-28T13:12:50.371Z,18.30
2023-03-28T13:15:18.171Z,18.30
2023-03-28T13:17:46.123Z,18.30
2023-03-28T13:20:14.037Z,18.20
2023-03-28T13:22:42.215Z,18.20
2023-03-28T13:25:10.064Z,18.20
2023-03-28T13:27:37.843Z,18.30
2023-03-28T13:30:05.721Z,18.20
2023-03-28T13:32:33.587Z,18.20
2023-03-28T13:35:01.843Z,18.20
2023-03-28T13:37:29.660Z,18.20
2023-03-28T13:39:57.442Z,18.20
2023-03-28T13:42:25.535Z,18.20
2023-03-28T13:44:53.325Z,18.20
2023-03-28T13:47:23.241Z,18.30
2023-03-28T13:49:51.268Z,18.50
2023-03-28T13:52:19.168Z,18.60
2023-03-28T13:54:53.888Z,18.90
2023-03-28T13:57:22.000Z,19.20
2023-03-28T13:59:50.009Z,19.50
2023-03-28T14:02:18.819Z,19.70
2023-03-28T14:04:46.615Z,19.90
2023-03-28T14:07:14.442Z,20.00
2023-03-28T14:09:42.277Z,20.20
2023-03-28T14:12:10.138Z,20.30
2023-03-28T14:14:37.967Z,20.50
2023-03-28T14:17:05.786Z,20.50
2023-03-28T14:19:34.222Z,20.50
2023-03-28T14:22:02.191Z,20.50
2023-03-28T14:24:30.017Z,20.60
2023-03-28T14:26:57.798Z,20.50
2023-03-28T14:29:25.616Z,20.50
2023-03-28T14:31:53.918Z,20.50
2023-03-28T14:34:24.165Z,20.60
2023-03-28T14:36:52.074Z,20.60
2023-03-28T14:39:19.875Z,20.50
2023-03-28T14:41:47.750Z,20.50
2023-03-28T14:44:15.627Z,20.50
2023-03-28T14:46:43.437Z,20.50
2023-03-28T14:49:11.241Z,20.50
2023-03-28T14:51:39.056Z,20.40
2023-03-28T14:54:06.929Z,20.40
2023-03-28T14:56:34.761Z,20.40
2023-03-28T14:59:02.599Z,20.40
2023-03-28T15:01:32.160Z,20.30
2023-03-28T15:04:01.954Z,20.30
2023-03-28T15:06:30.710Z,20.20
2023-03-28T15:08:58.543Z,20.20
2023-03-28T15:11:27.795Z,20.20
2023-03-28T15:13:55.861Z,20.10
2023-03-28T15:16:24.292Z,20.10
2023-03-28T15:18:52.227Z,20.00
2023-03-28T15:21:20.030Z,20.00
2023-03-28T15:23:47.823Z,19.90
2023-03-28T15:26:15.596Z,19.90
2023-03-28T15:28:43.373Z,19.90
2023-03-28T15:31:11.270Z,19.80
2023-03-28T15:33:39.360Z,19.70
2023-03-28T15:36:07.924Z,19.60
2023-03-28T15:38:36.081Z,19.60
2023-03-28T15:41:03.902Z,19.60
2023-03-28T15:43:31.679Z,19.50
2023-03-28T15:45:59.576Z,19.50
2023-03-28T15:48:27.737Z,19.40
2023-03-28T15:50:56.402Z,19.40
2023-03-28T15:53:24.266Z,19.40
2023-03-28T15:55:54.227Z,19.30
2023-03-28T15:58:23.511Z,19.30
2023-03-28T16:00:51.898Z,19.30
2023-03-28T16:03:19.921Z,19.30
2023-03-28T16:05:47.892Z,19.30
2023-03-28T16:08:15.765Z,19.30
2023-03-28T16:10:43.530Z,19.30
2023-03-28T16:13:14.553Z,19.20
2023-03-28T16:15:42.571Z,19.20
2023-03-28T16:18:10.433Z,19.20
2023-03-28T16:20:38.458Z,19.20
2023-03-28T16:23:07.155Z,19.30
2023-03-28T16:25:35.110Z,19.30
2023-03-28T16:28:02.948Z,19.40
2023-03-28T16:30:31.811Z,19.50
2023-03-28T16:32:59.986Z,19.60
2023-03-28T16:35:28.771Z,19.70
2023-03-28T16:40:50.087Z,19.80
2023-03-28T16:43:18.091Z,19.90
2023-03-28T16:45:45.946Z,19.90
2023-03-28T16:48:14.104Z,19.90
2023-03-28T16:50:41.844Z,20.00
2023-03-28T16:53:09.660Z,20.00
2023-03-28T16:55:37.471Z,19.90
2023-03-28T16:58:05.392Z,19.90
2023-03-28T17:00:33.917Z,19.90
2023-03-28T17:03:02.085Z,19.90
2023-03-28T17:05:29.922Z,19.90
2023-03-28T17:07:59.639Z,19.90
2023-03-28T17:10:29.377Z,19.80
2023-03-28T17:12:57.942Z,19.80
2023-03-28T17:15:26.189Z,19.70
2023-03-28T17:17:54.905Z,19.70
2023-03-28T17:20:22.798Z,19.70
2023-03-28T17:22:50.642Z,19.70
2023-03-28T17:25:19.163Z,19.60
2023-03-28T17:27:46.954Z,19.60
2023-03-28T17:30:14.823Z,19.50
2023-03-28T17:32:42.750Z,19.50
2023-03-28T17:35:12.073Z,19.40
2023-03-28T17:37:40.124Z,19.30
2023-03-28T17:40:08.114Z,19.30
2023-03-28T17:42:35.874Z,19.20
2023-03-28T17:45:03.831Z,19.20
2023-03-28T17:47:32.057Z,19.20
2023-03-28T17:50:00.618Z,19.20
2023-03-28T17:52:29.919Z,19.20
2023-03-28T17:54:58.812Z,19.20
2023-03-28T17:57:26.772Z,19.20
2023-03-28T17:59:54.730Z,19.20
2023-03-28T18:02:22.608Z,19.20
2023-03-28T18:04:51.191Z,19.20
2023-03-28T18:07:18.996Z,19.20
2023-03-28T18:09:46.783Z,19.10
2023-03-28T18:12:14.593Z,19.10
2023-03-28T18:14:42.424Z,19.00
2023-03-28T18:17:10.299Z,19.00
2023-03-28T18:19:38.139Z,19.00
2023-03-28T18:22:05.930Z,19.00
2023-03-28T18:24:34.208Z,19.00
2023-03-28T18:27:02.354Z,18.90
2023-03-28T18:29:31.166Z,18.90
2023-03-28T18:31:59.261Z,18.80
2023-03-28T18:34:27.501Z,18.80
2023-03-28T18:36:55.796Z,18.80
2023-03-28T18:39:24.409Z,18.80
2023-03-28T18:41:52.299Z,18.80
2023-03-28T18:44:20.111Z,18.80
2023-03-28T18:46:54.801Z,18.80
2023-03-28T18:49:22.831Z,18.70
2023-03-28T18:51:50.686Z,18.70
2023-03-28T18:54:18.490Z,18.70
2023-03-28T18:56:46.573Z,18.60
2023-03-28T18:59:14.394Z,18.60
2023-03-28T19:01:44.993Z,18.60
2023-03-28T19:04:13.091Z,18.60
2023-03-28T19:06:41.380Z,18.60
2023-03-28T19:09:09.175Z,18.50
2023-03-28T19:11:36.944Z,18.50
2023-03-28T19:14:04.754Z,18.50
2023-03-28T19:16:32.624Z,18.50
2023-03-28T19:19:00.404Z,18.50
2023-03-28T19:21:28.596Z,18.40
2023-03-28T19:23:56.474Z,18.40
2023-03-28T19:26:24.453Z,18.40
2023-03-28T19:28:52.264Z,18.30
2023-03-28T19:31:21.879Z,18.40
2023-03-28T19:33:49.962Z,18.30
2023-03-28T19:36:17.966Z,18.30
2023-03-28T19:38:45.875Z,18.30
2023-03-28T19:41:15.684Z,18.30
2023-03-28T19:43:43.765Z,18.20
2023-03-28T19:46:11.644Z,18.30
2023-03-28T19:48:39.541Z,18.20
2023-03-28T19:51:07.309Z,18.20
2023-03-28T19:53:35.148Z,18.20
2023-03-28T19:56:03.208Z,18.20
2023-03-28T19:58:31.326Z,18.20
2023-03-28T20:00:59.672Z,18.20
2023-03-28T20:03:27.596Z,18.20
2023-03-28T20:05:55.362Z,18.20
2023-03-28T20:08:23.166Z,18.10
2023-03-28T20:10:51.326Z,18.20
2023-03-28T20:13:19.206Z,18.10
2023-03-28T20:15:47.116Z,18.20
2023-03-28T20:18:15.754Z,18.20
2023-03-28T20:20:43.792Z,18.20
2023-03-28T20:23:11.863Z,18.20
2023-03-28T20:25:39.646Z,18.20
2023-03-28T20:28:10.143Z,18.20
2023-03-28T20:30:37.995Z,18.20
2023-03-28T20:33:05.852Z,18.20
2023-03-28T20:35:33.738Z,18.10
2023-03-28T20:38:01.515Z,18.20
2023-03-28T20:40:29.336Z,18.10
2023-03-28T20:42:57.560Z,18.10
2023-03-28T20:45:25.760Z,18.10
2023-03-28T20:47:58.669Z,18.10
2023-03-28T20:50:34.145Z,18.10
2023-03-28T20:53:02.073Z,18.10
2023-03-28T20:55:31.373Z,18.10
2023-03-28T20:57:59.493Z,18.10
2023-03-28T21:00:30.154Z,18.00
2023-03-28T21:02:58.043Z,18.00
2023-03-28T21:05:27.267Z,18.00
2023-03-28T21:07:55.536Z,18.00
2023-03-28T21:10:23.599Z,18.00
2023-03-28T21:12:51.654Z,17.90
2023-03-28T21:15:19.495Z,17.90
2023-03-28T21:17:49.571Z,17.90
2023-03-28T21:20:19.108Z,17.90
2023-03-28T21:22:46.879Z,17.90
2023-03-28T21:25:14.856Z,17.90
2023-03-28T21:27:43.217Z,17.90
2023-03-28T21:30:13.414Z,17.80
2023-03-28T21:32:41.927Z,17.80
2023-03-28T21:35:10.448Z,17.90
2023-03-28T21:37:38.223Z,17.90
2023-03-28T21:40:08.592Z,17.80
2023-03-28T21:42:36.507Z,17.80
2023-03-28T21:45:04.447Z,17.80
2023-03-28T21:47:32.448Z,17.80
2023-03-28T21:50:00.689Z,17.80
2023-03-28T21:52:28.498Z,17.80
2023-03-28T21:54:56.335Z,17.80
2023-03-28T21:57:24.343Z,17.80
2023-03-28T21:59:52.139Z,17.80
2023-03-28T22:02:20.155Z,17.80
2023-03-28T22:04:48.227Z,17.80
2023-03-28T22:07:16.363Z,17.80
2023-03-28T22:09:44.683Z,17.80
2023-03-28T22:12:15.171Z,17.80
2023-03-28T22:14:42.991Z,17.80
2023-03-28T22:17:11.000Z,17.80
2023-03-28T22:19:38.909Z,17.80
2023-03-28T22:22:06.739Z,17.80
2023-03-28T22:24:34.786Z,17.80
2023-03-28T22:27:02.579Z,17.70
2023-03-28T22:29:30.400Z,17.80
2023-03-28T22:31:58.320Z,17.70
2023-03-28T22:34:26.494Z,17.70
2023-03-28T22:36:54.967Z,17.70
2023-03-28T22:39:22.848Z,17.70
2023-03-28T22:41:51.144Z,17.70
2023-03-28T22:44:21.867Z,17.70
2023-03-28T22:46:49.841Z,17.70
2023-03-28T22:49:22.097Z,17.70
2023-03-28T22:51:49.978Z,17.70
2023-03-28T22:54:21.130Z,17.70
2023-03-28T22:56:49.125Z,17.70
2023-03-28T22:59:17.120Z,17.70
2023-03-28T23:01:45.582Z,17.70
2023-03-28T23:04:13.551Z,17.70
2023-03-28T23:06:41.589Z,17.70
2023-03-28T23:09:09.524Z,17.60
2023-03-28T23:11:37.285Z,17.60
2023-03-28T23:14:05.289Z,17.60
2023-03-28T23:16:33.560Z,17.60
2023-03-28T23:19:01.379Z,17.60
2023-03-28T23:21:30.981Z,17.60
2023-03-28T23:23:58.876Z,17.60
2023-03-28T23:26:26.624Z,17.60
2023-03-28T23:28:54.444Z,17.60
2023-03-28T23:31:22.352Z,17.60
2023-03-28T23:33:50.241Z,17.60
2023-03-28T23:36:20.656Z,17.60
2023-03-28T23:38:48.610Z,17.60
2023-03-28T23:41:16.689Z,17.60
2023-03-28T23:43:44.546Z,17.60
2023-03-28T23:46:12.736Z,17.60
2023-03-28T23:48:40.627Z,17.60
2023-03-28T23:51:09.066Z,17.60
2023-03-28T23:53:36.870Z,17.60
2023-03-28T23:56:04.677Z,17.60
2023-03-28T23:58:32.535Z,17.60
